Time;durP1;ratioP1;P1;durP2;ratioP2;P2;SDS_P1;SDS_P2;PMS_P1;PMS_P2;Temp;Humidity;BMP_temperature;BMP_pressure;BME280_temperature;BME280_humidity;BME280_pressure;Samples;Min_cycle;Max_cycle;Signal;HPM_P1;HPM_P2
2021/01/15 00:01:20;;;;;;;28.47;16.83;;;;;;;-1.32;87.58;99964.26;1738073;81;25327;-70
2021/01/15 00:03:47;;;;;;;27.13;16.60;;;;;;;-1.32;87.77;99964.26;1698706;84;25652;-70
2021/01/15 00:06:25;;;;;;;26.60;15.57;;;;;;;-1.30;87.88;99958.61;1694582;84;25289;-69
2021/01/15 00:08:53;;;;;;;27.17;16.17;;;;;;;-1.32;87.91;99959.09;1709496;83;25291;-70
2021/01/15 00:11:27;;;;;;;28.23;17.23;;;;;;;-1.36;88.05;99957.03;1709533;84;25287;-69
2021/01/15 00:14:02;;;;;;;32.97;17.70;;;;;;;-1.33;88.05;99954.36;1889339;76;26818;-69
2021/01/15 00:16:32;;;;;;;27.63;17.67;;;;;;;-1.37;88.13;99960.94;1852750;77;25307;-69
2021/01/15 00:19:01;;;;;;;30.53;18.77;;;;;;;-1.37;88.11;99958.36;1848332;77;25601;-69
2021/01/15 00:21:32;;;;;;;32.53;19.07;;;;;;;-1.38;88.20;99959.23;1860108;76;25269;-69
2021/01/15 00:24:01;;;;;;;31.97;19.37;;;;;;;-1.40;88.22;99964.42;1846020;77;25192;-69
2021/01/15 00:26:29;;;;;;;29.50;17.57;;;;;;;-1.38;88.22;99960.06;1854820;77;25345;-68
2021/01/15 00:28:56;;;;;;;25.00;16.17;;;;;;;-1.37;88.12;99970.81;1860013;77;25293;-69
2021/01/15 00:31:30;;;;;;;22.17;14.90;;;;;;;-1.39;88.11;99966.12;1859949;77;25480;-69
2021/01/15 00:33:57;;;;;;;25.53;15.87;;;;;;;-1.38;87.77;99960.52;1860053;77;25214;-68
2021/01/15 00:36:24;;;;;;;22.13;14.10;;;;;;;-1.42;87.65;99959.75;1843555;77;25295;-69
2021/01/15 00:38:50;;;;;;;21.70;13.63;;;;;;;-1.44;87.51;99955.49;1859667;77;25552;-71
2021/01/15 00:41:17;;;;;;;20.57;14.00;;;;;;;-1.46;87.48;99963.72;1860118;77;25379;-70
2021/01/15 00:43:44;;;;;;;20.50;13.57;;;;;;;-1.46;87.16;99956.81;1860168;77;25253;-70
2021/01/15 00:46:27;;;;;;;22.00;14.50;;;;;;;-1.47;87.21;99965.88;1859989;77;25609;-70
2021/01/15 00:48:43;;;;;;;24.40;16.10;;;;;;;-1.49;87.46;99956.91;1857144;77;25284;-70
2021/01/15 00:51:10;;;;;;;24.40;15.83;;;;;;;-1.44;87.27;99952.91;1857418;77;25185;-69
2021/01/15 00:53:37;;;;;;;24.17;15.60;;;;;;;-1.43;87.15;99958.04;1786403;79;25277;-69
2021/01/15 00:56:05;;;;;;;25.27;16.60;;;;;;;-1.43;87.02;99950.30;1786335;80;25320;-70
2021/01/15 00:58:31;;;;;;;22.53;15.60;;;;;;;-1.45;87.08;99954.66;1786346;80;25488;-70
2021/01/15 01:00:58;;;;;;;22.70;15.97;;;;;;;-1.44;86.96;99953.78;1771471;79;25076;-71
2021/01/15 01:03:27;;;;;;;25.83;15.50;;;;;;;-1.45;87.13;99956.39;1787900;80;25271;-69
2021/01/15 01:05:54;;;;;;;22.20;14.77;;;;;;;-1.42;87.08;99964.91;1788563;79;25401;-69
2021/01/15 01:08:20;;;;;;;21.53;14.73;;;;;;;-1.41;87.11;99956.72;1793962;78;25610;-69
2021/01/15 01:10:47;;;;;;;24.23;15.73;;;;;;;-1.38;87.09;99956.65;1788992;78;25323;-69
2021/01/15 01:13:14;;;;;;;26.90;16.13;;;;;;;-1.39;87.09;99958.39;1804449;78;25803;-68
2021/01/15 01:15:41;;;;;;;27.37;17.07;;;;;;;-1.37;87.16;99960.48;1775080;80;25213;-69
2021/01/15 01:18:08;;;;;;;24.47;16.47;;;;;;;-1.38;87.19;99958.78;1770470;80;25280;-69
2021/01/15 01:20:35;;;;;;;23.13;16.10;;;;;;;-1.38;87.18;99951.03;1802806;79;25314;-70
2021/01/15 01:23:01;;;;;;;22.80;15.40;;;;;;;-1.36;87.25;99957.45;1768578;80;25181;-69
2021/01/15 01:25:28;;;;;;;23.00;15.77;;;;;;;-1.33;87.33;99956.09;1778845;80;25223;-70
2021/01/15 01:27:55;;;;;;;23.90;16.40;;;;;;;-1.33;87.38;99951.77;1791675;80;25334;-70
2021/01/15 01:30:22;;;;;;;26.17;16.83;;;;;;;-1.26;87.40;99949.06;1791680;80;25781;-70
2021/01/15 01:32:49;;;;;;;24.73;16.00;;;;;;;-1.31;87.39;99955.61;1791266;80;25663;-70
2021/01/15 01:35:15;;;;;;;27.27;17.73;;;;;;;-1.32;87.53;99958.64;1791352;80;25311;-69
2021/01/15 01:37:42;;;;;;;24.10;17.13;;;;;;;-1.27;87.65;99957.67;1791576;80;25699;-69
2021/01/15 01:40:12;;;;;;;25.50;16.67;;;;;;;-1.23;87.70;99952.41;1791549;80;25201;-69
2021/01/15 01:42:39;;;;;;;26.90;17.33;;;;;;;-1.19;87.71;99952.76;1821794;78;25836;-69
2021/01/15 01:45:08;;;;;;;26.10;17.30;;;;;;;-1.16;87.70;99952.69;1809407;78;25279;-69
2021/01/15 01:47:35;;;;;;;26.73;18.57;;;;;;;-1.14;87.58;99955.20;1774380;80;25815;-69
2021/01/15 01:50:02;;;;;;;25.43;17.67;;;;;;;-1.15;87.53;99958.23;1732610;81;25355;-70
2021/01/15 01:52:28;;;;;;;30.13;19.33;;;;;;;-1.22;87.53;99954.12;1774279;80;25306;-69
2021/01/15 01:54:55;;;;;;;28.90;18.60;;;;;;;-1.20;87.72;99960.08;1732361;81;25292;-69
2021/01/15 01:57:22;;;;;;;30.70;19.83;;;;;;;-1.18;87.75;99958.77;1772477;80;25712;-69
2021/01/15 01:59:48;;;;;;;27.90;17.93;;;;;;;-1.19;87.86;99954.47;1789928;80;25312;-69
2021/01/15 02:02:15;;;;;;;29.77;18.87;;;;;;;-1.22;87.91;99962.31;1772914;80;25310;-70
2021/01/15 02:04:42;;;;;;;28.87;19.17;;;;;;;-1.21;88.15;99964.83;1790272;80;25226;-69
2021/01/15 02:07:09;;;;;;;30.93;20.10;;;;;;;-1.20;88.31;99974.28;1758745;81;25303;-69
2021/01/15 02:10:11;;;;;;;28.10;19.17;;;;;;;-1.17;88.36;99971.63;1758750;81;25339;-69
2021/01/15 02:12:58;;;;;;;30.43;19.77;;;;;;;-1.16;88.34;99968.59;1787809;80;25363;-70
2021/01/15 02:15:42;;;;;;;28.40;17.03;;;;;;;-1.14;88.54;99968.11;1791601;80;25275;-69
2021/01/15 02:18:33;;;;;;;30.70;20.67;;;;;;;-1.17;88.58;99970.34;1791585;80;25689;-69
2021/01/15 02:21:23;;;;;;;29.40;19.80;;;;;;;-1.22;88.58;99965.73;1791181;80;25210;-69
2021/01/15 02:23:50;;;;;;;28.07;19.13;;;;;;;-1.15;88.79;99965.98;1790308;80;25297;-69
2021/01/15 02:26:54;;;;;;;28.13;19.33;;;;;;;-1.09;88.87;99962.39;1785558;80;25312;-69
2021/01/15 02:29:25;;;;;;;26.87;18.30;;;;;;;-1.05;88.93;99969.20;1782361;80;25538;-69
2021/01/15 02:32:24;;;;;;;26.70;18.40;;;;;;;-1.03;88.87;99964.00;1755304;80;25636;-69
2021/01/15 02:35:17;;;;;;;27.53;18.33;;;;;;;-1.04;88.98;99970.03;1791691;80;25296;-69
2021/01/15 02:38:07;;;;;;;25.90;17.60;;;;;;;-1.03;89.05;99971.74;1791606;80;25250;-70
2021/01/15 02:40:46;;;;;;;26.40;17.47;;;;;;;-1.02;89.17;99972.13;1790968;80;25712;-69
2021/01/15 02:43:13;;;;;;;27.53;18.63;;;;;;;-0.99;89.36;99969.48;1779837;80;25517;-69
2021/01/15 02:45:40;;;;;;;27.67;18.60;;;;;;;-1.01;89.30;99977.26;1760429;81;25077;-69
2021/01/15 02:48:10;;;;;;;25.93;18.73;;;;;;;-0.99;89.54;99977.22;1762735;80;25273;-69
2021/01/15 02:50:37;;;;;;;27.77;18.77;;;;;;;-0.99;89.57;99981.09;1791205;80;25276;-69
2021/01/15 02:53:04;;;;;;;26.33;18.27;;;;;;;-0.96;89.72;99987.48;1777788;80;25206;-70
2021/01/15 02:55:31;;;;;;;31.20;19.90;;;;;;;-0.97;89.80;99986.64;1791637;80;25218;-71
2021/01/15 02:57:58;;;;;;;27.80;17.80;;;;;;;-0.91;90.04;99987.38;1789820;80;25676;-70
2021/01/15 03:00:25;;;;;;;24.97;17.53;;;;;;;-0.84;90.15;99997.53;1791700;80;25297;-71
2021/01/15 03:03:16;;;;;;;26.77;17.80;;;;;;;-0.92;90.10;99992.99;1790893;80;25633;-70
2021/01/15 03:06:04;;;;;;;24.73;17.10;;;;;;;-0.88;90.27;99997.18;1790881;80;25233;-70
2021/01/15 03:08:31;;;;;;;23.77;17.10;;;;;;;-0.93;90.55;99995.16;1791525;80;25186;-70
2021/01/15 03:11:00;;;;;;;23.03;16.00;;;;;;;-0.91;90.27;99996.41;1791214;80;25882;-70
2021/01/15 03:13:29;;;;;;;24.07;16.63;;;;;;;-0.95;90.56;100004.68;1789562;80;25290;-71
2021/01/15 03:16:01;;;;;;;25.47;16.93;;;;;;;-0.98;90.70;100007.33;1785407;80;25352;-70
2021/01/15 03:18:27;;;;;;;21.50;15.13;;;;;;;-0.97;90.93;100009.05;1785488;80;25158;-70
2021/01/15 03:20:54;;;;;;;21.40;14.83;;;;;;;-0.95;90.76;100013.72;1785715;80;25660;-70
2021/01/15 03:23:21;;;;;;;23.07;15.73;;;;;;;-0.96;90.73;100015.88;1785272;80;25308;-71
2021/01/15 03:25:47;;;;;;;20.87;13.50;;;;;;;-0.94;90.73;100020.14;1785694;80;25676;-70
2021/01/15 03:28:15;;;;;;;21.23;15.37;;;;;;;-0.96;90.87;100021.05;1785650;80;25659;-70
2021/01/15 03:30:42;;;;;;;20.90;15.13;;;;;;;-0.99;90.75;100016.83;1785204;80;25763;-71
2021/01/15 03:33:08;;;;;;;23.47;14.77;;;;;;;-1.00;90.77;100013.82;1756592;80;25158;-70
2021/01/15 03:35:35;;;;;;;21.20;14.07;;;;;;;-1.05;90.92;100011.80;1754616;81;25600;-70
2021/01/15 03:38:10;;;;;;;19.30;14.13;;;;;;;-1.05;90.76;100010.95;1754644;81;25240;-71
2021/01/15 03:40:38;;;;;;;21.50;15.13;;;;;;;-1.05;90.71;100013.09;1754581;81;25208;-71
2021/01/15 03:43:16;;;;;;;21.80;14.37;;;;;;;-1.05;90.78;100010.95;1785256;80;25323;-70
2021/01/15 03:45:44;;;;;;;21.23;13.83;;;;;;;-1.03;90.71;100005.30;1775694;80;25235;-70
2021/01/15 03:48:12;;;;;;;21.27;14.00;;;;;;;-1.09;90.48;100001.56;1782040;80;25257;-70
2021/01/15 03:50:39;;;;;;;20.37;14.50;;;;;;;-1.07;90.50;100000.66;1817894;78;25128;-70
2021/01/15 03:53:05;;;;;;;18.50;13.40;;;;;;;-1.09;90.45;100002.86;1817841;78;25279;-70
2021/01/15 03:55:32;;;;;;;20.63;14.63;;;;;;;-1.15;90.33;100007.73;1805423;78;25626;-70
2021/01/15 03:58:00;;;;;;;19.93;14.03;;;;;;;-1.17;90.39;100003.90;1752720;80;25238;-71
2021/01/15 04:00:26;;;;;;;19.37;14.93;;;;;;;-1.14;90.40;100011.58;1781088;79;25148;-71
2021/01/15 04:02:53;;;;;;;21.73;15.70;;;;;;;-1.15;90.31;100004.70;1781508;80;25261;-70
2021/01/15 04:05:20;;;;;;;22.60;15.70;;;;;;;-1.15;90.29;100004.70;1754484;81;25817;-70
2021/01/15 04:07:46;;;;;;;20.73;14.53;;;;;;;-1.12;90.31;100000.77;1753169;80;25302;-71
2021/01/15 04:10:16;;;;;;;20.63;15.17;;;;;;;-1.07;90.30;100003.66;1770841;80;25314;-70
2021/01/15 04:12:43;;;;;;;21.33;14.70;;;;;;;-1.04;90.19;100012.63;1754670;80;25209;-70
2021/01/15 04:15:12;;;;;;;20.57;14.77;;;;;;;-1.01;90.20;100012.56;1754827;80;25374;-70
2021/01/15 04:17:47;;;;;;;19.60;13.73;;;;;;;-0.95;90.09;100009.84;1831354;76;27101;-69
2021/01/15 04:20:16;;;;;;;20.27;14.37;;;;;;;-1.01;89.81;100017.73;1814486;77;25718;-70
2021/01/15 04:22:45;;;;;;;21.23;14.50;;;;;;;-1.04;89.85;100012.63;1804904;78;25259;-70
2021/01/15 04:25:12;;;;;;;19.77;14.97;;;;;;;-1.12;89.69;100008.50;1819682;77;25338;-69
2021/01/15 04:27:40;;;;;;;21.47;15.03;;;;;;;-1.14;89.72;100001.25;1819735;77;25714;-70
2021/01/15 04:30:09;;;;;;;22.93;15.73;;;;;;;-1.17;89.68;100003.90;1819835;78;25318;-70
2021/01/15 04:32:36;;;;;;;27.93;17.23;;;;;;;-1.14;89.67;100006.41;1804688;78;25760;-69
2021/01/15 04:35:04;;;;;;;22.30;15.80;;;;;;;-1.14;89.71;99998.67;1782190;78;25073;-69
2021/01/15 04:37:31;;;;;;;22.77;15.60;;;;;;;-1.11;89.56;99999.02;1801918;78;25289;-69
2021/01/15 04:39:57;;;;;;;22.17;14.63;;;;;;;-1.13;89.55;100001.64;1788211;78;25311;-69
2021/01/15 04:42:24;;;;;;;20.07;14.90;;;;;;;-1.12;89.37;100004.64;1807726;77;25261;-70
2021/01/15 04:44:51;;;;;;;19.87;14.43;;;;;;;-1.15;89.36;99991.80;1812570;78;25303;-69
2021/01/15 04:47:18;;;;;;;20.60;13.47;;;;;;;-1.13;89.39;99996.47;1819763;78;25298;-69
2021/01/15 04:49:45;;;;;;;21.80;15.27;;;;;;;-1.14;89.25;100001.25;1786288;78;25191;-69
2021/01/15 04:52:15;;;;;;;22.77;15.10;;;;;;;-1.12;89.31;100011.55;1787378;80;25131;-69
2021/01/15 04:54:45;;;;;;;20.50;15.17;;;;;;;-1.12;89.29;100020.13;1787667;79;25565;-71
2021/01/15 04:57:11;;;;;;;19.07;14.10;;;;;;;-1.09;89.27;100018.34;1756095;80;25239;-70
2021/01/15 04:59:47;;;;;;;20.37;14.17;;;;;;;-1.05;89.17;100021.28;1787380;79;25771;-70
2021/01/15 05:02:16;;;;;;;21.23;14.77;;;;;;;-1.07;88.98;100026.90;1786448;80;25339;-70
2021/01/15 05:04:42;;;;;;;19.17;13.70;;;;;;;-1.13;88.63;100031.77;1783231;79;25260;-70
2021/01/15 05:07:12;;;;;;;20.17;14.10;;;;;;;-1.20;88.55;100031.06;1786745;79;26301;-70
2021/01/15 05:09:42;;;;;;;20.93;14.90;;;;;;;-1.32;88.33;100031.35;1783094;79;25270;-70
2021/01/15 05:12:17;;;;;;;21.00;14.47;;;;;;;-1.31;88.66;100038.19;1784628;79;25216;-70
2021/01/15 05:17:22;;;;;;;20.33;13.63;;;;;;;-1.22;88.80;100041.88;1852688;77;26894;-69
2021/01/15 05:19:49;;;;;;;19.93;14.80;;;;;;;-1.25;88.76;100044.52;1819659;78;25298;-69
2021/01/15 05:22:15;;;;;;;21.20;14.43;;;;;;;-1.24;88.63;100050.09;1805185;78;25316;-69
2021/01/15 05:24:42;;;;;;;19.97;13.90;;;;;;;-1.24;88.74;100050.09;1824500;78;25741;-69
2021/01/15 05:30:23;;;;;;;24.60;14.93;;;;;;;-1.22;88.38;100051.36;1810350;78;25274;-69
2021/01/15 05:32:52;;;;;;;21.40;14.20;;;;;;;-1.24;88.29;100047.94;1783222;80;25319;-69
2021/01/15 05:35:20;;;;;;;19.90;14.00;;;;;;;-1.26;88.21;100053.13;1774475;79;25196;-70
2021/01/15 05:37:58;;;;;;;24.00;14.80;;;;;;;-1.28;88.14;100050.20;1755478;81;25303;-69
2021/01/15 05:40:44;;;;;;;23.60;14.70;;;;;;;-1.30;88.13;100045.06;1757264;81;25300;-69
2021/01/15 05:43:26;;;;;;;27.73;15.43;;;;;;;-1.33;87.93;100061.90;1777839;80;25181;-69
2021/01/15 05:46:18;;;;;;;26.00;15.57;;;;;;;-1.41;87.83;100058.19;1765332;80;25203;-70
2021/01/15 05:48:54;;;;;;;20.83;13.13;;;;;;;-1.47;87.91;100070.37;1757166;81;25731;-71
2021/01/15 05:51:31;;;;;;;21.37;13.97;;;;;;;-1.45;87.95;100071.20;1765956;79;25356;-68
2021/01/15 05:53:58;;;;;;;20.77;13.67;;;;;;;-1.45;87.86;100072.50;1748476;81;25707;-69
2021/01/15 05:56:26;;;;;;;17.03;12.70;;;;;;;-1.48;87.74;100066.11;1775575;80;25769;-68
2021/01/15 05:59:05;;;;;;;19.87;13.97;;;;;;;-1.49;87.83;100057.52;1697070;83;25255;-69
2021/01/15 06:01:51;;;;;;;19.90;13.87;;;;;;;-1.51;87.80;100060.14;1757205;80;25344;-69
2021/01/15 06:04:21;;;;;;;19.50;13.00;;;;;;;-1.51;87.82;100054.98;1736200;81;25745;-70
2021/01/15 06:06:56;;;;;;;19.47;13.23;;;;;;;-1.47;87.79;100058.34;1844564;76;26846;-69
2021/01/15 06:09:23;;;;;;;19.93;13.23;;;;;;;-1.48;87.88;100062.23;1805327;78;25223;-71
2021/01/15 06:11:51;;;;;;;17.17;12.60;;;;;;;-1.45;87.72;100072.50;1819796;77;25271;-71
2021/01/15 06:14:29;;;;;;;20.17;13.60;;;;;;;-1.48;87.53;100087.59;1819621;78;25737;-69
2021/01/15 06:17:07;;;;;;;20.90;14.27;;;;;;;-1.54;87.46;100079.99;1803401;78;25257;-69
2021/01/15 06:19:46;;;;;;;19.00;13.63;;;;;;;-1.53;87.65;100091.99;1819641;77;25205;-68
2021/01/15 06:22:43;;;;;;;18.93;13.33;;;;;;;-1.53;87.55;100099.73;1817955;77;25283;-69
2021/01/15 06:25:27;;;;;;;20.03;14.17;;;;;;;-1.51;87.57;100092.39;1812733;77;25192;-69
2021/01/15 06:27:56;;;;;;;20.37;13.40;;;;;;;-1.50;87.60;100095.80;1814235;77;25210;-68
2021/01/15 06:30:25;;;;;;;20.97;13.90;;;;;;;-1.49;87.50;100098.80;1789722;78;25708;-71
2021/01/15 06:32:54;;;;;;;19.93;13.90;;;;;;;-1.44;87.50;100098.27;1787359;79;25740;-69
2021/01/15 06:35:29;;;;;;;25.97;17.00;;;;;;;-1.44;87.38;100101.27;1787429;80;25791;-68
2021/01/15 06:38:08;;;;;;;22.33;14.90;;;;;;;-1.44;87.38;100112.88;1797005;78;25379;-69
2021/01/15 06:40:48;;;;;;;21.20;14.30;;;;;;;-1.43;87.30;100101.69;1818909;77;25211;-69
2021/01/15 06:43:34;;;;;;;21.83;14.60;;;;;;;-1.43;87.30;100115.88;1819690;77;25199;-69
2021/01/15 06:46:05;;;;;;;17.93;13.10;;;;;;;-1.46;87.14;100113.36;1819688;77;25302;-68
2021/01/15 06:48:36;;;;;;;19.50;13.73;;;;;;;-1.54;86.95;100105.80;1819830;78;25259;-68
2021/01/15 06:51:07;;;;;;;22.33;14.17;;;;;;;-1.60;86.99;100104.16;1800072;78;25273;-69
2021/01/15 06:53:39;;;;;;;18.87;12.70;;;;;;;-1.55;87.15;100113.11;1784710;79;25294;-69
2021/01/15 06:56:07;;;;;;;19.70;13.03;;;;;;;-1.52;87.07;100113.89;1784994;79;25293;-69
2021/01/15 06:58:41;;;;;;;19.80;12.97;;;;;;;-1.54;86.85;100113.08;1787162;80;25206;-68
2021/01/15 07:01:21;;;;;;;20.43;12.93;;;;;;;-1.58;86.90;100109.30;1786623;79;25273;-69
2021/01/15 07:04:18;;;;;;;18.27;13.27;;;;;;;-1.61;86.85;100106.77;1773555;80;25480;-69
2021/01/15 07:07:13;;;;;;;18.70;13.60;;;;;;;-1.62;86.88;100109.80;1783965;79;25265;-69
2021/01/15 07:09:44;;;;;;;21.37;14.40;;;;;;;-1.63;86.92;100113.70;1771622;79;25211;-69
2021/01/15 07:12:21;;;;;;;20.50;13.83;;;;;;;-1.58;87.14;100110.13;1849811;76;26812;-69
2021/01/15 07:14:56;;;;;;;29.47;16.00;;;;;;;-1.57;87.02;100111.84;1819816;77;25681;-68
2021/01/15 07:17:30;;;;;;;25.90;15.60;;;;;;;-1.54;87.12;100109.21;1819823;77;25235;-70
2021/01/15 07:20:14;;;;;;;23.60;15.70;;;;;;;-1.52;87.10;100128.53;1819872;78;25310;-70
2021/01/15 07:22:57;;;;;;;29.90;19.90;;;;;;;-1.46;87.27;100123.23;1801278;78;25302;-69
2021/01/15 07:25:23;;;;;;;29.13;17.80;;;;;;;-1.40;87.13;100126.14;1811772;78;25681;-70
2021/01/15 07:27:51;;;;;;;25.83;16.63;;;;;;;-1.38;86.93;100123.92;1819746;78;25195;-69
2021/01/15 07:30:26;;;;;;;25.60;17.63;;;;;;;-1.40;86.79;100123.11;1819223;77;25176;-69
2021/01/15 07:32:55;;;;;;;26.93;19.60;;;;;;;-1.38;86.90;100133.41;1819777;77;25223;-69
2021/01/15 07:35:29;;;;;;;27.03;17.97;;;;;;;-1.33;86.99;100141.90;1819442;77;25298;-69
2021/01/15 07:38:16;;;;;;;24.40;16.80;;;;;;;-1.27;87.08;100137.91;1816575;78;25100;-69
2021/01/15 07:40:43;;;;;;;24.67;17.07;;;;;;;-1.23;86.94;100138.24;1819252;78;25251;-69
2021/01/15 07:46:11;;;;;;;21.60;16.10;;;;;;;-1.16;86.62;100130.80;1818287;78;26877;-70
2021/01/15 07:48:37;;;;;;;23.37;16.50;;;;;;;-1.20;86.61;100140.77;1789347;79;25293;-70
2021/01/15 07:51:11;;;;;;;23.30;16.63;;;;;;;-1.17;86.64;100143.28;1738351;81;25382;-70
2021/01/15 07:53:40;;;;;;;24.57;16.33;;;;;;;-1.14;86.46;100145.81;1738425;82;25266;-69
2021/01/15 07:56:07;;;;;;;22.70;15.47;;;;;;;-1.10;86.43;100145.30;1738723;82;25716;-70
2021/01/15 07:58:40;;;;;;;30.40;19.57;;;;;;;-1.04;85.88;100144.30;1738223;82;25175;-69
2021/01/15 08:01:16;;;;;;;24.40;16.63;;;;;;;-0.98;86.27;100141.59;1738363;82;25277;-69
2021/01/15 08:03:54;;;;;;;30.97;19.90;;;;;;;-0.80;86.23;100140.34;1889267;75;27680;-68
2021/01/15 08:06:21;;;;;;;23.07;17.37;;;;;;;-0.77;86.11;100139.83;1859117;77;25198;-70
2021/01/15 08:09:06;;;;;;;25.27;18.20;;;;;;;-0.72;85.43;100153.07;1846762;77;25286;-68
2021/01/15 08:11:36;;;;;;;23.83;17.33;;;;;;;-0.71;85.38;100150.91;1836300;77;25277;-69
2021/01/15 08:14:17;;;;;;;22.77;15.37;;;;;;;-0.68;84.34;100151.69;1769159;79;25294;-69
2021/01/15 08:16:45;;;;;;;69.47;34.87;;;;;;;-0.70;83.96;100146.13;1790054;80;25331;-69
2021/01/15 08:19:17;;;;;;;30.20;20.33;;;;;;;-0.67;83.99;100149.52;1766086;81;25256;-69
2021/01/15 08:21:53;;;;;;;30.33;20.97;;;;;;;-0.52;84.00;100143.56;1818192;78;26890;-70
2021/01/15 08:24:24;;;;;;;34.83;23.50;;;;;;;-0.49;84.40;100144.80;1789216;80;25202;-71
2021/01/15 08:26:56;;;;;;;42.47;24.27;;;;;;;-0.41;83.83;100137.25;1788767;79;25139;-70
2021/01/15 08:29:25;;;;;;;32.23;21.43;;;;;;;-0.35;83.89;100149.62;1789395;79;25268;-69
2021/01/15 08:31:59;;;;;;;32.23;21.80;;;;;;;-0.26;83.35;100144.23;1788634;79;25316;-69
2021/01/15 08:34:33;;;;;;;37.13;24.67;;;;;;;-0.19;83.29;100138.86;1789487;79;25261;-71
2021/01/15 08:37:05;;;;;;;39.37;25.97;;;;;;;-0.13;83.36;100148.22;1789331;79;25755;-70
2021/01/15 08:39:49;;;;;;;40.57;27.10;;;;;;;-0.15;83.09;100153.00;1762515;80;25699;-70
2021/01/15 08:42:23;;;;;;;50.17;32.40;;;;;;;-0.12;83.14;100153.77;1799637;79;26907;-68
2021/01/15 08:44:50;;;;;;;42.10;30.17;;;;;;;-0.08;83.26;100158.45;1734096;82;25708;-68
2021/01/15 08:47:19;;;;;;;40.13;31.37;;;;;;;-0.02;82.88;100159.56;1775150;80;25271;-68
2021/01/15 08:49:57;;;;;;;38.17;31.57;;;;;;;0.00;82.91;100156.52;1788102;80;25237;-68
2021/01/15 08:52:29;;;;;;;52.40;41.03;;;;;;;0.02;82.39;100154.73;1752064;81;25230;-68
2021/01/15 08:54:57;;;;;;;48.93;39.33;;;;;;;0.04;82.42;100157.29;1766358;80;25221;-68
2021/01/15 08:57:28;;;;;;;37.77;30.37;;;;;;;0.06;82.47;100158.93;1701444;83;25355;-69
2021/01/15 08:59:55;;;;;;;27.03;20.07;;;;;;;0.07;82.33;100163.22;1779222;80;25234;-69
2021/01/15 09:02:22;;;;;;;30.90;25.73;;;;;;;0.09;82.12;100163.19;1715293;81;25108;-69
2021/01/15 09:04:53;;;;;;;38.47;29.43;;;;;;;0.11;81.89;100158.81;1756068;81;25773;-70
2021/01/15 09:07:20;;;;;;;34.30;24.27;;;;;;;0.15;81.73;100165.17;1762313;80;25333;-70
2021/01/15 09:09:47;;;;;;;29.73;22.20;;;;;;;0.18;81.83;100171.56;1733508;81;25337;-69
2021/01/15 09:12:14;;;;;;;29.83;21.87;;;;;;;0.20;81.75;100165.48;1737868;82;25250;-69
2021/01/15 09:14:41;;;;;;;28.53;19.70;;;;;;;0.29;81.66;100163.51;1677964;83;25258;-69
2021/01/15 09:17:09;;;;;;;33.13;22.23;;;;;;;0.33;81.75;100167.70;1732896;82;25214;-69
2021/01/15 09:19:36;;;;;;;27.23;19.80;;;;;;;0.47;81.23;100167.77;1754909;81;25718;-70
2021/01/15 09:22:07;;;;;;;30.93;20.97;;;;;;;0.50;80.73;100169.85;1773237;80;25377;-69
2021/01/15 09:24:34;;;;;;;25.03;20.10;;;;;;;0.59;79.99;100171.33;1765431;80;25264;-69
2021/01/15 09:27:06;;;;;;;26.80;20.20;;;;;;;0.62;79.20;100168.66;1722023;81;25400;-69
2021/01/15 09:29:34;;;;;;;33.27;23.10;;;;;;;0.59;79.09;100170.04;1755040;80;25318;-70
2021/01/15 09:32:02;;;;;;;37.87;24.93;;;;;;;0.65;79.77;100169.00;1748401;81;25317;-69
2021/01/15 09:34:30;;;;;;;40.70;26.27;;;;;;;0.77;80.33;100161.34;1730060;83;25202;-69
2021/01/15 09:37:09;;;;;;;28.07;19.70;;;;;;;0.92;80.08;100166.94;1811603;78;26653;-69
2021/01/15 09:39:35;;;;;;;36.37;23.83;;;;;;;1.04;79.31;100166.15;1797292;79;25718;-70
2021/01/15 09:42:03;;;;;;;39.00;26.00;;;;;;;1.07;78.22;100166.94;1762944;79;25268;-70
2021/01/15 09:44:31;;;;;;;52.07;32.80;;;;;;;1.03;78.17;100167.91;1797200;79;25180;-69
2021/01/15 09:47:00;;;;;;;48.50;30.50;;;;;;;1.05;77.83;100170.45;1797032;79;25225;-70
2021/01/15 09:49:33;;;;;;;40.00;27.93;;;;;;;1.03;78.45;100167.91;1765059;79;25320;-69
2021/01/15 09:52:01;;;;;;;44.00;27.90;;;;;;;1.13;78.59;100165.05;1764493;79;25311;-69
2021/01/15 09:54:31;;;;;;;44.30;27.67;;;;;;;1.32;78.34;100166.17;1797204;79;25715;-69
2021/01/15 09:57:06;;;;;;;34.03;23.43;;;;;;;1.54;78.60;100160.31;1800373;78;27561;-68
2021/01/15 09:59:32;;;;;;;37.20;26.10;;;;;;;1.61;77.38;100166.56;1789498;79;25362;-68
2021/01/15 10:02:00;;;;;;;41.07;26.80;;;;;;;1.62;77.23;100170.00;1789480;79;25316;-68
2021/01/15 10:04:27;;;;;;;31.50;21.50;;;;;;;1.62;77.45;100168.70;1762850;80;25244;-70
2021/01/15 10:06:55;;;;;;;30.83;21.73;;;;;;;1.65;76.81;100178.98;1778994;79;25636;-70
2021/01/15 10:09:22;;;;;;;27.53;20.80;;;;;;;1.64;76.63;100175.98;1768080;80;25307;-70
2021/01/15 10:11:49;;;;;;;25.20;18.97;;;;;;;1.60;75.94;100179.12;1732671;81;25280;-70
2021/01/15 10:14:17;;;;;;;27.40;19.50;;;;;;;1.47;76.35;100178.67;1769449;80;25366;-69
2021/01/15 10:16:51;;;;;;;28.57;20.97;;;;;;;1.45;76.89;100179.61;1763301;79;25227;-70
2021/01/15 10:19:22;;;;;;;28.90;20.90;;;;;;;1.47;76.28;100179.11;1770016;79;25748;-70
2021/01/15 10:21:48;;;;;;;24.43;18.20;;;;;;;1.40;75.79;100176.31;1762989;80;25216;-70
2021/01/15 10:24:17;;;;;;;21.47;16.30;;;;;;;1.21;76.21;100178.17;1761848;80;25397;-70
2021/01/15 10:26:44;;;;;;;33.10;22.83;;;;;;;1.14;76.06;100177.97;1783536;80;25209;-70
2021/01/15 10:29:16;;;;;;;33.43;21.57;;;;;;;0.97;76.09;100175.84;1789410;79;25301;-69
2021/01/15 10:31:54;;;;;;;19.20;13.63;;;;;;;0.84;76.36;100166.31;1742943;81;25274;-71
2021/01/15 10:34:22;;;;;;;19.97;14.07;;;;;;;0.70;76.85;100174.48;1751940;81;25382;-69
2021/01/15 10:36:49;;;;;;;15.87;12.50;;;;;;;0.61;77.33;100176.02;1732227;81;25346;-70
2021/01/15 10:39:16;;;;;;;14.87;10.40;;;;;;;0.61;77.45;100170.00;1741568;81;25220;-69
2021/01/15 10:41:46;;;;;;;12.83;10.53;;;;;;;0.58;77.73;100171.38;1751243;81;25614;-70
2021/01/15 10:44:20;;;;;;;12.67;10.50;;;;;;;0.52;77.91;100175.83;1761133;81;25077;-70
2021/01/15 10:46:50;;;;;;;25.27;17.33;;;;;;;0.59;78.15;100172.63;1751736;81;25208;-70
2021/01/15 10:49:19;;;;;;;29.07;20.57;;;;;;;0.67;77.38;100181.45;1727440;82;25698;-70
2021/01/15 10:51:48;;;;;;;26.97;20.03;;;;;;;0.64;77.58;100175.09;1698667;83;25157;-70
2021/01/15 10:54:17;;;;;;;23.37;17.87;;;;;;;0.65;77.78;100174.19;1724466;81;25659;-70
2021/01/15 10:56:46;;;;;;;20.63;15.20;;;;;;;0.71;77.59;100168.39;1728386;82;25676;-71
2021/01/15 10:59:13;;;;;;;13.70;10.43;;;;;;;0.64;78.09;100165.58;1740060;81;25160;-71
2021/01/15 11:01:50;;;;;;;15.37;11.73;;;;;;;0.70;77.65;100156.36;1760588;81;25282;-71
2021/01/15 11:04:19;;;;;;;24.33;14.30;;;;;;;0.67;78.02;100164.20;1748931;81;25653;-71
2021/01/15 11:06:49;;;;;;;38.20;18.03;;;;;;;0.74;78.11;100157.11;1704343;83;25122;-70
2021/01/15 11:09:18;;;;;;;85.40;32.03;;;;;;;0.84;78.24;100160.26;1729671;83;25154;-71
2021/01/15 11:11:50;;;;;;;26.27;14.10;;;;;;;0.89;77.55;100155.83;1749965;81;25235;-69
2021/01/15 11:14:26;;;;;;;65.70;30.70;;;;;;;0.88;77.66;100157.54;1852574;76;26825;-71
2021/01/15 11:16:56;;;;;;;14.43;10.20;;;;;;;0.87;78.05;100157.59;1824663;77;25583;-69
2021/01/15 11:19:23;;;;;;;15.03;10.50;;;;;;;0.95;77.81;100164.69;1824736;77;25255;-69
2021/01/15 11:21:52;;;;;;;19.37;11.40;;;;;;;0.89;77.12;100163.59;1824544;78;25324;-70
2021/01/15 11:24:19;;;;;;;13.80;10.40;;;;;;;0.76;77.63;100163.55;1823964;78;25125;-68
2021/01/15 11:26:45;;;;;;;25.80;14.70;;;;;;;0.69;77.55;100165.00;1824563;78;25266;-69
2021/01/15 11:29:13;;;;;;;13.20;9.07;;;;;;;0.64;77.77;100165.58;1824705;77;25231;-69
2021/01/15 11:31:41;;;;;;;36.07;18.97;;;;;;;0.67;77.35;100157.73;1793277;78;25243;-69
2021/01/15 11:34:07;;;;;;;35.40;18.97;;;;;;;0.68;77.55;100154.69;1824620;77;25298;-70
2021/01/15 11:36:34;;;;;;;23.33;11.43;;;;;;;0.63;77.27;100148.80;1824691;77;25274;-69
2021/01/15 11:39:10;;;;;;;18.23;9.53;;;;;;;0.65;77.24;100143.95;1824370;77;25573;-69
2021/01/15 11:41:37;;;;;;;12.23;9.33;;;;;;;0.67;77.07;100156.44;1824340;77;25243;-70